Time;durP1;ratioP1;P1;durP2;ratioP2;P2;SDS_P1;SDS_P2;PMS_P1;PMS_P2;Temp;Humidity;BMP_temperature;BMP_pressure;BME280_temperature;BME280_humidity;BME280_pressure;Samples;Min_cycle;Max_cycle;Signal;HPM_P1;HPM_P2
2022/07/17 00:01:07;;;;;;;;;;;12.80;58.90;;;;;;4158163;28;19913;-85
2022/07/17 00:03:28;;;;;;;;;;;12.80;58.90;;;;;;4148214;28;19973;-86
2022/07/17 00:06:07;;;;;;;;;;;12.80;58.90;;;;;;4178842;23;20056;-86
2022/07/17 00:08:30;;;;;;;;;;;12.80;59.10;;;;;;4154277;28;20026;-85
2022/07/17 00:10:51;;;;;;;;;;;12.80;59.00;;;;;;4163343;28;19909;-86
2022/07/17 00:13:12;;;;;;;;;;;12.80;59.50;;;;;;4158774;28;19909;-86
2022/07/17 00:15:36;;;;;;;;;;;12.80;59.40;;;;;;4153013;28;19956;-86
2022/07/17 00:17:57;;;;;;;;;;;12.80;59.60;;;;;;4148504;28;19909;-86
2022/07/17 00:20:18;;;;;;;;;;;12.80;59.40;;;;;;4153152;28;20478;-87
2022/07/17 00:22:43;;;;;;;;;;;12.80;59.60;;;;;;4150126;28;19924;-87
2022/07/17 00:25:08;;;;;;;;;;;12.80;59.40;;;;;;4143399;28;19917;-86
2022/07/17 00:27:29;;;;;;;;;;;12.80;59.50;;;;;;4152127;28;20029;-85
2022/07/17 00:29:56;;;;;;;;;;;12.80;59.40;;;;;;4152417;28;19912;-86
2022/07/17 00:32:17;;;;;;;;;;;12.80;59.50;;;;;;4155457;28;19913;-86
2022/07/17 00:34:43;;;;;;;;;;;12.70;59.50;;;;;;4150785;28;19909;-87
2022/07/17 00:37:04;;;;;;;;;;;12.70;59.50;;;;;;4150791;28;19917;-87
2022/07/17 00:39:24;;;;;;;;;;;12.70;59.50;;;;;;4146986;28;19916;-85
2022/07/17 00:41:48;;;;;;;;;;;12.70;59.50;;;;;;4155556;28;19913;-86
2022/07/17 00:44:18;;;;;;;;;;;12.70;59.40;;;;;;4152913;28;19910;-87
2022/07/17 00:46:40;;;;;;;;;;;12.70;59.50;;;;;;4150649;28;19905;-87
2022/07/17 00:49:05;;;;;;;;;;;12.70;59.50;;;;;;4155005;28;19956;-86
2022/07/17 00:51:28;;;;;;;;;;;12.70;59.40;;;;;;4151562;28;19928;-84
2022/07/17 00:53:54;;;;;;;;;;;12.70;59.40;;;;;;4160077;28;19905;-88
2022/07/17 00:56:15;;;;;;;;;;;12.60;59.30;;;;;;4170615;28;19988;-87
2022/07/17 00:58:36;;;;;;;;;;;12.60;59.40;;;;;;4164621;28;19917;-86
2022/07/17 01:00:57;;;;;;;;;;;12.60;59.40;;;;;;4170547;28;19908;-86
2022/07/17 01:03:21;;;;;;;;;;;12.60;59.30;;;;;;4152206;28;19909;-86
2022/07/17 01:05:44;;;;;;;;;;;12.50;59.20;;;;;;4151816;28;19921;-85
2022/07/17 01:08:05;;;;;;;;;;;12.50;59.30;;;;;;4148988;28;19909;-86
2022/07/17 01:10:26;;;;;;;;;;;12.50;59.40;;;;;;4151402;28;19910;-87
2022/07/17 01:12:47;;;;;;;;;;;12.50;59.40;;;;;;4152043;28;19935;-86
2022/07/17 01:15:11;;;;;;;;;;;12.50;59.40;;;;;;4152550;28;19999;-86
2022/07/17 01:17:35;;;;;;;;;;;12.40;59.30;;;;;;4146458;28;19912;-86
2022/07/17 01:19:57;;;;;;;;;;;12.40;59.40;;;;;;4147224;28;19913;-86
2022/07/17 01:22:21;;;;;;;;;;;12.50;59.40;;;;;;4152166;28;20298;-86
2022/07/17 01:24:42;;;;;;;;;;;12.40;59.50;;;;;;4153549;28;19909;-86
2022/07/17 01:27:03;;;;;;;;;;;12.40;59.60;;;;;;4155380;28;19916;-86
2022/07/17 01:29:26;;;;;;;;;;;12.30;59.50;;;;;;4151343;28;20370;-86
2022/07/17 01:31:48;;;;;;;;;;;12.30;59.50;;;;;;4156589;28;19916;-86
2022/07/17 01:34:10;;;;;;;;;;;12.30;59.50;;;;;;4154074;28;20354;-85
2022/07/17 01:36:30;;;;;;;;;;;12.30;59.60;;;;;;4159801;28;19920;-86
2022/07/17 01:38:51;;;;;;;;;;;12.30;59.60;;;;;;4156706;28;19905;-87
2022/07/17 01:41:12;;;;;;;;;;;12.20;59.60;;;;;;4157069;28;19916;-87
2022/07/17 01:43:33;;;;;;;;;;;12.20;59.60;;;;;;4159497;28;19917;-87
2022/07/17 01:45:54;;;;;;;;;;;12.20;59.70;;;;;;4152467;28;19920;-85
2022/07/17 01:48:24;;;;;;;;;;;12.20;59.70;;;;;;4151207;28;19909;-86
2022/07/17 01:50:45;;;;;;;;;;;12.20;59.80;;;;;;4157932;28;20591;-86
2022/07/17 01:53:06;;;;;;;;;;;12.20;59.80;;;;;;4154516;28;20362;-87
2022/07/17 01:55:27;;;;;;;;;;;12.10;59.80;;;;;;4148625;28;19968;-86
2022/07/17 01:57:48;;;;;;;;;;;12.10;59.80;;;;;;4160803;28;19958;-86
2022/07/17 02:00:10;;;;;;;;;;;12.10;59.90;;;;;;4154778;28;19909;-86
2022/07/17 02:02:31;;;;;;;;;;;12.10;60.00;;;;;;4152540;28;19910;-87
2022/07/17 02:04:52;;;;;;;;;;;12.10;60.40;;;;;;4154939;28;20485;-86
2022/07/17 02:07:13;;;;;;;;;;;12.00;60.80;;;;;;4149490;28;19919;-86
2022/07/17 02:09:34;;;;;;;;;;;12.00;60.70;;;;;;4160567;28;19913;-86
2022/07/17 02:11:55;;;;;;;;;;;12.00;60.80;;;;;;4156421;28;20484;-85
2022/07/17 02:14:15;;;;;;;;;;;12.00;61.40;;;;;;4154319;28;20007;-86
2022/07/17 02:16:36;;;;;;;;;;;12.00;61.30;;;;;;4151660;28;19917;-86
2022/07/17 02:18:57;;;;;;;;;;;12.00;61.50;;;;;;4155103;28;19905;-87
2022/07/17 02:21:18;;;;;;;;;;;12.00;62.00;;;;;;4152339;28;19910;-87
2022/07/17 02:23:39;;;;;;;;;;;12.00;61.80;;;;;;4154634;28;19917;-87
2022/07/17 02:26:00;;;;;;;;;;;12.00;61.90;;;;;;4147944;28;19910;-86
2022/07/17 02:28:20;;;;;;;;;;;12.00;62.30;;;;;;4152225;28;19917;-85
2022/07/17 02:30:41;;;;;;;;;;;11.90;62.30;;;;;;4152948;28;19905;-85
2022/07/17 02:33:02;;;;;;;;;;;12.00;63.30;;;;;;4153264;28;19916;-86
2022/07/17 02:35:23;;;;;;;;;;;12.00;62.80;;;;;;4156467;28;19916;-87
2022/07/17 02:37:45;;;;;;;;;;;11.90;62.90;;;;;;4157404;28;19920;-87
2022/07/17 02:40:10;;;;;;;;;;;11.90;63.30;;;;;;4151029;28;19933;-85
2022/07/17 02:42:30;;;;;;;;;;;11.90;63.30;;;;;;4155978;28;20279;-85
2022/07/17 02:44:51;;;;;;;;;;;11.90;63.40;;;;;;4153176;28;19909;-85
2022/07/17 02:47:13;;;;;;;;;;;11.90;63.10;;;;;;4151180;28;19916;-85
2022/07/17 02:49:34;;;;;;;;;;;11.90;63.20;;;;;;4148978;28;20040;-86
2022/07/17 02:51:55;;;;;;;;;;;12.00;63.30;;;;;;4149507;28;21340;-86
2022/07/17 02:54:16;;;;;;;;;;;12.00;63.30;;;;;;4150509;28;20006;-86
2022/07/17 02:56:37;;;;;;;;;;;12.00;63.30;;;;;;4151175;28;20342;-85
2022/07/17 02:58:58;;;;;;;;;;;11.90;63.40;;;;;;4153865;28;19936;-86
2022/07/17 03:01:19;;;;;;;;;;;11.90;63.20;;;;;;4148455;28;19916;-86
2022/07/17 03:03:40;;;;;;;;;;;11.90;63.20;;;;;;4155663;28;20008;-86
2022/07/17 03:06:01;;;;;;;;;;;11.90;63.30;;;;;;4158176;28;19941;-86
2022/07/17 03:08:22;;;;;;;;;;;11.90;63.50;;;;;;4149311;28;20264;-86
2022/07/17 03:10:42;;;;;;;;;;;11.90;63.50;;;;;;4149381;28;19916;-84
2022/07/17 03:13:03;;;;;;;;;;;11.90;63.40;;;;;;4154894;28;19941;-84
2022/07/17 03:15:24;;;;;;;;;;;12.00;63.50;;;;;;4151180;28;19920;-84
2022/07/17 03:17:45;;;;;;;;;;;11.90;63.60;;;;;;4151419;28;19967;-85
2022/07/17 03:20:06;;;;;;;;;;;11.90;63.50;;;;;;4154807;28;19945;-85
2022/07/17 03:22:27;;;;;;;;;;;11.90;63.90;;;;;;4149841;28;20351;-85
2022/07/17 03:24:48;;;;;;;;;;;11.90;64.00;;;;;;4150625;28;19912;-84
2022/07/17 03:27:09;;;;;;;;;;;11.90;64.10;;;;;;4150620;28;20888;-85
2022/07/17 03:29:30;;;;;;;;;;;11.90;64.20;;;;;;4153498;28;19909;-84
2022/07/17 03:31:50;;;;;;;;;;;11.90;64.20;;;;;;4152921;28;19913;-85
2022/07/17 03:34:11;;;;;;;;;;;11.90;64.30;;;;;;4154131;28;20023;-85
2022/07/17 03:36:32;;;;;;;;;;;11.90;64.30;;;;;;4151457;28;20363;-86
2022/07/17 03:38:53;;;;;;;;;;;11.90;64.30;;;;;;4149107;28;19913;-86
2022/07/17 03:41:14;;;;;;;;;;;12.00;64.30;;;;;;4156305;28;20446;-86
2022/07/17 03:43:35;;;;;;;;;;;11.90;64.10;;;;;;4153705;28;19959;-84
2022/07/17 03:45:56;;;;;;;;;;;12.00;64.20;;;;;;4155877;28;19924;-85
2022/07/17 03:48:16;;;;;;;;;;;12.00;64.10;;;;;;4148312;28;20063;-85
2022/07/17 03:50:37;;;;;;;;;;;12.00;64.20;;;;;;4153026;28;19913;-84
2022/07/17 03:52:58;;;;;;;;;;;12.00;64.20;;;;;;4154511;28;19909;-86
2022/07/17 03:55:19;;;;;;;;;;;12.00;64.20;;;;;;4158696;28;19959;-85
2022/07/17 03:57:40;;;;;;;;;;;12.10;64.20;;;;;;4150642;28;19920;-84
2022/07/17 04:00:01;;;;;;;;;;;12.10;64.90;;;;;;4154756;28;19905;-85
2022/07/17 04:02:22;;;;;;;;;;;12.10;64.10;;;;;;4148220;28;20364;-85
2022/07/17 04:04:43;;;;;;;;;;;12.10;64.60;;;;;;4150312;28;19917;-85
2022/07/17 04:07:04;;;;;;;;;;;12.20;64.30;;;;;;4154765;28;19936;-86
2022/07/17 04:09:24;;;;;;;;;;;12.20;64.20;;;;;;4156455;28;19909;-86
2022/07/17 04:11:45;;;;;;;;;;;12.20;64.30;;;;;;4151800;28;20008;-85
2022/07/17 04:14:06;;;;;;;;;;;12.20;64.30;;;;;;4152531;28;19906;-84
2022/07/17 04:16:27;;;;;;;;;;;12.20;64.30;;;;;;4148251;28;19920;-85
2022/07/17 04:18:48;;;;;;;;;;;12.30;64.50;;;;;;4153138;28;19912;-85
2022/07/17 04:21:09;;;;;;;;;;;12.30;64.40;;;;;;4148664;28;19905;-85
2022/07/17 04:23:31;;;;;;;;;;;12.30;65.00;;;;;;4152119;28;19933;-85
2022/07/17 04:25:55;;;;;;;;;;;12.40;65.10;;;;;;4149621;28;19910;-85
2022/07/17 04:28:16;;;;;;;;;;;12.40;64.80;;;;;;4148225;28;20165;-85
2022/07/17 04:30:37;;;;;;;;;;;12.40;65.30;;;;;;4153224;28;19909;-84
2022/07/17 04:32:58;;;;;;;;;;;12.40;65.80;;;;;;4163125;28;19914;-85
2022/07/17 04:35:19;;;;;;;;;;;12.50;65.60;;;;;;4157527;28;19905;-84
2022/07/17 04:37:40;;;;;;;;;;;12.50;65.80;;;;;;4152653;28;20360;-86
2022/07/17 04:40:00;;;;;;;;;;;12.50;65.60;;;;;;4152764;28;19917;-85
2022/07/17 04:42:21;;;;;;;;;;;12.50;65.80;;;;;;4151052;28;19910;-84
2022/07/17 04:44:42;;;;;;;;;;;12.60;66.50;;;;;;4154487;28;19932;-83
2022/07/17 04:47:03;;;;;;;;;;;12.60;66.20;;;;;;4153347;28;19909;-84
2022/07/17 04:49:24;;;;;;;;;;;12.60;66.20;;;;;;4153447;28;19920;-85
2022/07/17 04:51:45;;;;;;;;;;;12.70;66.30;;;;;;4151004;28;19909;-85
2022/07/17 04:54:06;;;;;;;;;;;12.70;66.40;;;;;;4155513;28;19909;-84
2022/07/17 04:56:27;;;;;;;;;;;12.70;66.50;;;;;;4153443;28;19920;-85
2022/07/17 04:58:47;;;;;;;;;;;12.80;66.60;;;;;;4150976;28;19944;-85
2022/07/17 05:01:08;;;;;;;;;;;12.80;66.70;;;;;;4154718;28;20671;-84
2022/07/17 05:03:29;;;;;;;;;;;12.80;66.90;;;;;;4149972;28;19905;-85
2022/07/17 05:05:50;;;;;;;;;;;12.90;67.00;;;;;;4157812;28;19913;-86
2022/07/17 05:08:11;;;;;;;;;;;12.90;67.30;;;;;;4152297;28;20248;-84
2022/07/17 05:10:32;;;;;;;;;;;12.90;67.30;;;;;;4150125;28;19909;-86
2022/07/17 05:12:53;;;;;;;;;;;13.00;67.30;;;;;;4155906;28;20351;-85
2022/07/17 05:15:13;;;;;;;;;;;13.00;67.50;;;;;;4158657;28;19916;-86
2022/07/17 05:17:34;;;;;;;;;;;13.10;67.50;;;;;;4152682;28;20371;-86
2022/07/17 05:19:55;;;;;;;;;;;13.20;67.40;;;;;;4157958;28;19905;-84
2022/07/17 05:22:16;;;;;;;;;;;13.10;67.30;;;;;;4154237;28;20000;-84
2022/07/17 05:24:37;;;;;;;;;;;13.20;67.30;;;;;;4168028;28;19916;-86
2022/07/17 05:26:58;;;;;;;;;;;13.30;67.70;;;;;;4153824;28;19909;-86
2022/07/17 05:29:19;;;;;;;;;;;13.30;67.30;;;;;;4157748;28;20347;-84
2022/07/17 05:31:40;;;;;;;;;;;13.30;67.50;;;;;;4157889;28;19932;-85
2022/07/17 05:34:01;;;;;;;;;;;13.40;67.40;;;;;;4153386;28;19909;-86
2022/07/17 05:36:22;;;;;;;;;;;13.40;67.30;;;;;;4154369;28;20376;-86
2022/07/17 05:38:42;;;;;;;;;;;13.50;67.20;;;;;;4150040;28;19909;-85
2022/07/17 05:41:04;;;;;;;;;;;13.50;66.90;;;;;;4153208;28;19909;-85
2022/07/17 05:43:25;;;;;;;;;;;13.50;66.90;;;;;;4154073;28;19951;-85
2022/07/17 05:45:46;;;;;;;;;;;13.50;66.70;;;;;;4157076;28;19913;-85
2022/07/17 05:48:07;;;;;;;;;;;13.60;66.80;;;;;;4156661;28;19915;-84
2022/07/17 05:50:27;;;;;;;;;;;13.60;66.90;;;;;;4155273;28;19944;-84
2022/07/17 05:52:48;;;;;;;;;;;13.60;66.70;;;;;;4152913;28;19996;-85
2022/07/17 05:55:09;;;;;;;;;;;13.60;66.60;;;;;;4152300;28;19916;-84
2022/07/17 05:57:30;;;;;;;;;;;13.60;67.30;;;;;;4160584;28;19917;-84
2022/07/17 05:59:51;;;;;;;;;;;13.70;66.60;;;;;;4153316;28;19910;-86
2022/07/17 06:02:12;;;;;;;;;;;13.70;66.70;;;;;;4153454;28;19928;-85
2022/07/17 06:04:33;;;;;;;;;;;13.70;66.60;;;;;;4153194;28;20412;-86
2022/07/17 06:06:54;;;;;;;;;;;13.70;66.50;;;;;;4150378;28;20421;-85
2022/07/17 06:09:14;;;;;;;;;;;13.80;66.40;;;;;;4152350;28;19937;-85
2022/07/17 06:11:35;;;;;;;;;;;13.70;66.40;;;;;;4160869;28;19929;-86
2022/07/17 06:13:57;;;;;;;;;;;13.80;66.60;;;;;;4156212;28;19909;-86
2022/07/17 06:16:18;;;;;;;;;;;13.80;66.50;;;;;;4157034;28;19943;-86
2022/07/17 06:18:38;;;;;;;;;;;13.80;66.70;;;;;;4164363;28;20505;-85
2022/07/17 06:20:59;;;;;;;;;;;13.80;66.60;;;;;;4158866;28;20382;-85
2022/07/17 06:23:23;;;;;;;;;;;13.80;66.90;;;;;;4166583;28;19909;-84
2022/07/17 06:25:56;;;;;;;;;;;13.90;67.00;;;;;;4152960;28;20000;-85
2022/07/17 06:28:17;;;;;;;;;;;13.90;67.40;;;;;;4156828;28;19909;-86
2022/07/17 06:30:43;;;;;;;;;;;14.00;67.70;;;;;;4157962;28;20431;-84
2022/07/17 06:33:10;;;;;;;;;;;14.10;67.80;;;;;;4156686;28;19929;-84
2022/07/17 06:35:33;;;;;;;;;;;14.20;68.00;;;;;;4158106;28;20402;-85
2022/07/17 06:37:54;;;;;;;;;;;14.20;68.10;;;;;;4157968;28;19913;-86
2022/07/17 06:40:15;;;;;;;;;;;14.30;67.80;;;;;;4164196;28;19976;-85
2022/07/17 06:42:36;;;;;;;;;;;14.40;67.70;;;;;;4151763;28;20391;-85
2022/07/17 06:44:59;;;;;;;;;;;14.60;67.70;;;;;;4156360;28;20334;-86
2022/07/17 06:47:23;;;;;;;;;;;14.70;67.40;;;;;;4157486;28;19909;-85
2022/07/17 06:49:44;;;;;;;;;;;14.80;67.10;;;;;;4159658;28;20382;-85
2022/07/17 06:52:10;;;;;;;;;;;14.90;66.80;;;;;;4158742;28;19917;-83
2022/07/17 06:54:31;;;;;;;;;;;15.00;65.90;;;;;;4162717;28;19909;-84
2022/07/17 06:56:52;;;;;;;;;;;15.10;64.80;;;;;;4156591;28;19920;-84
2022/07/17 06:59:13;;;;;;;;;;;15.20;65.00;;;;;;4158746;28;19916;-85
2022/07/17 07:01:35;;;;;;;;;;;15.30;64.40;;;;;;4155613;28;19988;-85
2022/07/17 07:03:56;;;;;;;;;;;15.30;63.90;;;;;;4158264;28;19917;-85
2022/07/17 07:06:17;;;;;;;;;;;15.40;63.70;;;;;;4157760;28;19917;-84
2022/07/17 07:08:37;;;;;;;;;;;15.50;63.70;;;;;;4155420;28;19912;-83
2022/07/17 07:10:58;;;;;;;;;;;15.60;63.20;;;;;;4159514;28;19971;-86
2022/07/17 07:13:19;;;;;;;;;;;15.70;63.10;;;;;;4152132;28;19956;-85
2022/07/17 07:15:40;;;;;;;;;;;15.70;62.00;;;;;;4153295;28;20330;-84
2022/07/17 07:18:01;;;;;;;;;;;15.80;61.90;;;;;;4155649;28;19909;-82
2022/07/17 07:20:22;;;;;;;;;;;15.90;61.70;;;;;;4153048;28;19913;-84
2022/07/17 07:22:43;;;;;;;;;;;16.00;61.90;;;;;;4150659;28;19917;-85
2022/07/17 07:25:04;;;;;;;;;;;16.10;62.00;;;;;;4166927;28;20008;-83
2022/07/17 07:27:25;;;;;;;;;;;16.10;61.00;;;;;;4156966;28;19909;-85
2022/07/17 07:29:45;;;;;;;;;;;16.20;60.10;;;;;;4148889;28;19913;-83
2022/07/17 07:32:06;;;;;;;;;;;16.30;60.00;;;;;;4156574;28;19905;-84
2022/07/17 07:34:27;;;;;;;;;;;16.30;60.10;;;;;;4156591;28;20264;-85
2022/07/17 07:36:48;;;;;;;;;;;16.40;60.50;;;;;;4147880;28;19921;-84
2022/07/17 07:39:09;;;;;;;;;;;16.50;60.40;;;;;;4151875;28;19905;-84
2022/07/17 07:41:30;;;;;;;;;;;16.60;59.70;;;;;;4149165;28;20000;-83
2022/07/17 07:43:51;;;;;;;;;;;16.70;60.10;;;;;;4149035;28;19937;-85
2022/07/17 07:46:12;;;;;;;;;;;16.80;59.70;;;;;;4151667;28;19912;-84
2022/07/17 07:48:32;;;;;;;;;;;16.80;58.80;;;;;;4150445;28;19916;-84
2022/07/17 07:50:53;;;;;;;;;;;16.90;58.70;;;;;;4148545;28;19971;-85
2022/07/17 07:53:14;;;;;;;;;;;17.00;59.00;;;;;;4151152;28;20363;-84
2022/07/17 07:55:35;;;;;;;;;;;17.10;59.00;;;;;;4150833;28;19913;-84
2022/07/17 07:58:22;;;;;;;;;;;17.20;58.20;;;;;;4154654;28;20293;-85
2022/07/17 08:00:43;;;;;;;;;;;17.20;57.70;;;;;;4156562;28;20338;-85
2022/07/17 08:03:04;;;;;;;;;;;17.30;57.40;;;;;;4151552;28;19913;-85
2022/07/17 08:05:25;;;;;;;;;;;17.30;57.40;;;;;;4152517;28;19955;-87
2022/07/17 08:07:46;;;;;;;;;;;17.40;57.40;;;;;;4151859;28;19913;-85
2022/07/17 08:10:07;;;;;;;;;;;17.30;56.70;;;;;;4154797;28;19924;-85
2022/07/17 08:12:28;;;;;;;;;;;17.40;56.90;;;;;;4148877;28;20268;-85
2022/07/17 08:14:49;;;;;;;;;;;17.50;57.40;;;;;;4153342;28;19939;-85
2022/07/17 08:17:10;;;;;;;;;;;17.60;57.60;;;;;;4148906;28;19913;-85
2022/07/17 08:19:31;;;;;;;;;;;17.60;55.70;;;;;;4152817;28;19936;-83
2022/07/17 08:21:52;;;;;;;;;;;17.70;55.90;;;;;;4151659;28;19916;-84
2022/07/17 08:24:13;;;;;;;;;;;17.70;55.80;;;;;;4155933;28;19913;-83
2022/07/17 08:26:36;;;;;;;;;;;17.80;55.50;;;;;;4150678;28;19944;-85
2022/07/17 08:28:59;;;;;;;;;;;17.90;55.60;;;;;;4162192;28;19905;-84
2022/07/17 08:31:23;;;;;;;;;;;17.90;55.40;;;;;;4153918;28;19909;-84
2022/07/17 08:33:43;;;;;;;;;;;17.90;55.30;;;;;;4159144;28;20119;-84
2022/07/17 08:36:04;;;;;;;;;;;18.00;55.60;;;;;;4158593;28;20000;-84
2022/07/17 08:38:26;;;;;;;;;;;18.00;55.50;;;;;;4155543;28;19980;-84
2022/07/17 08:40:49;;;;;;;;;;;18.10;55.20;;;;;;4151290;28;20402;-86
2022/07/17 08:43:10;;;;;;;;;;;18.10;54.80;;;;;;4156492;28;19918;-83
2022/07/17 08:45:31;;;;;;;;;;;18.10;54.30;;;;;;4151173;28;19905;-85
2022/07/17 08:47:53;;;;;;;;;;;18.00;54.00;;;;;;4151414;28;20334;-85
2022/07/17 08:50:14;;;;;;;;;;;18.10;54.70;;;;;;4151891;28;19909;-83
2022/07/17 08:52:36;;;;;;;;;;;18.10;54.30;;;;;;4154588;28;19921;-84
2022/07/17 08:54:57;;;;;;;;;;;18.10;54.30;;;;;;4154212;28;19925;-83
2022/07/17 08:57:18;;;;;;;;;;;18.20;54.30;;;;;;4147927;28;20272;-86
2022/07/17 08:59:39;;;;;;;;;;;18.20;54.30;;;;;;4159068;28;20401;-84
2022/07/17 09:02:00;;;;;;;;;;;18.20;54.50;;;;;;4164813;28;19909;-86
2022/07/17 09:04:21;;;;;;;;;;;18.30;54.90;;;;;;4162168;28;19977;-85
2022/07/17 09:06:42;;;;;;;;;;;18.30;55.00;;;;;;4151180;28;19924;-85
2022/07/17 09:09:06;;;;;;;;;;;18.40;55.30;;;;;;4147836;28;19910;-85
2022/07/17 09:11:29;;;;;;;;;;;18.50;54.90;;;;;;4146621;28;19912;-84
2022/07/17 09:13:52;;;;;;;;;;;18.60;55.00;;;;;;4152899;28;19915;-83
2022/07/17 09:16:13;;;;;;;;;;;18.70;54.80;;;;;;4153718;28;19913;-86
2022/07/17 09:18:44;;;;;;;;;;;18.70;53.30;;;;;;4151558;28;19913;-86
2022/07/17 09:21:05;;;;;;;;;;;18.80;53.00;;;;;;4158142;28;20035;-86
2022/07/17 09:23:26;;;;;;;;;;;18.80;52.10;;;;;;4158048;28;19905;-86
2022/07/17 09:25:48;;;;;;;;;;;18.80;52.80;;;;;;4148632;28;19944;-87
2022/07/17 09:28:10;;;;;;;;;;;18.90;53.40;;;;;;4156601;28;19910;-84
2022/07/17 09:30:32;;;;;;;;;;;18.90;52.70;;;;;;4148199;28;19988;-84
2022/07/17 09:32:55;;;;;;;;;;;18.90;52.00;;;;;;4152333;28;19906;-85
2022/07/17 09:35:16;;;;;;;;;;;18.90;51.40;;;;;;4150130;28;20367;-85
2022/07/17 09:37:37;;;;;;;;;;;18.90;51.50;;;;;;4150279;28;19917;-84
2022/07/17 09:39:58;;;;;;;;;;;18.90;51.30;;;;;;4150293;28;19968;-84
2022/07/17 09:42:29;;;;;;;;;;;18.90;51.60;;;;;;4151503;28;19905;-83
2022/07/17 09:44:56;;;;;;;;;;;18.90;51.70;;;;;;4151409;28;19925;-87
2022/07/17 09:47:20;;;;;;;;;;;18.90;51.30;;;;;;4155899;28;19913;-87
2022/07/17 09:49:41;;;;;;;;;;;18.90;51.20;;;;;;4156450;28;19913;-85
2022/07/17 09:52:02;;;;;;;;;;;18.90;51.00;;;;;;4152955;28;19909;-84
2022/07/17 09:54:23;;;;;;;;;;;18.90;50.80;;;;;;4160304;28;19992;-83
2022/07/17 09:56:45;;;;;;;;;;;18.90;51.10;;;;;;4164031;28;19947;-84
2022/07/17 09:59:07;;;;;;;;;;;19.00;51.60;;;;;;4158734;28;19906;-84
2022/07/17 10:01:31;;;;;;;;;;;19.00;51.20;;;;;;4152076;28;19913;-86
2022/07/17 10:03:53;;;;;;;;;;;19.00;51.00;;;;;;4155055;28;19905;-86
2022/07/17 10:06:23;;;;;;;;;;;19.10;51.50;;;;;;4148322;28;20399;-86
2022/07/17 10:08:44;;;;;;;;;;;19.20;51.60;;;;;;4152670;28;19906;-85
2022/07/17 10:11:08;;;;;;;;;;;19.30;51.60;;;;;;4155194;28;19913;-85
2022/07/17 10:13:30;;;;;;;;;;;19.40;51.00;;;;;;4151815;28;19905;-84
2022/07/17 10:15:56;;;;;;;;;;;19.40;50.80;;;;;;4151419;28;19925;-87
2022/07/17 10:18:39;;;;;;;;;;;19.50;51.40;;;;;;4157429;28;20448;-85
2022/07/17 10:21:09;;;;;;;;;;;19.50;51.30;;;;;;4154757;28;19950;-85
2022/07/17 10:23:30;;;;;;;;;;;19.60;51.50;;;;;;4153625;28;19920;-86
2022/07/17 10:26:17;;;;;;;;;;;19.70;51.20;;;;;;4151363;28;19979;-86
2022/07/17 10:28:47;;;;;;;;;;;19.80;50.80;;;;;;4149159;28;19948;-85
2022/07/17 10:31:08;;;;;;;;;;;19.80;51.00;;;;;;4150271;28;19941;-84
2022/07/17 10:33:42;;;;;;;;;;;19.90;51.30;;;;;;4148957;28;20379;-87
2022/07/17 10:36:03;;;;;;;;;;;19.90;51.80;;;;;;4158319;28;19920;-85
2022/07/17 10:38:26;;;;;;;;;;;20.00;52.00;;;;;;4154704;28;19967;-87
2022/07/17 10:40:58;;;;;;;;;;;20.00;51.40;;;;;;4153749;28;19905;-84
2022/07/17 10:43:19;;;;;;;;;;;20.10;50.60;;;;;;4150157;28;19909;-86
2022/07/17 10:45:45;;;;;;;;;;;20.10;50.70;;;;;;4155761;28;19909;-87
2022/07/17 10:48:05;;;;;;;;;;;20.10;50.60;;;;;;4148829;28;19944;-86
2022/07/17 10:50:26;;;;;;;;;;;20.20;50.70;;;;;;4148936;28;19929;-87
2022/07/17 10:53:06;;;;;;;;;;;20.20;50.90;;;;;;4148386;28;19959;-85
2022/07/17 10:55:30;;;;;;;;;;;20.20;50.80;;;;;;4150358;28;19905;-83
2022/07/17 10:57:51;;;;;;;;;;;20.20;50.70;;;;;;4150252;28;20314;-87
2022/07/17 11:00:12;;;;;;;;;;;20.20;50.90;;;;;;4149941;28;19912;-86
2022/07/17 11:02:43;;;;;;;;;;;20.20;51.00;;;;;;4154915;28;20307;-87
2022/07/17 11:05:08;;;;;;;;;;;20.10;51.00;;;;;;4151705;28;20455;-86
2022/07/17 11:07:47;;;;;;;;;;;20.10;51.00;;;;;;4152505;28;19913;-84
2022/07/17 11:10:21;;;;;;;;;;;20.10;51.30;;;;;;4158487;28;19905;-85
2022/07/17 11:12:58;;;;;;;;;;;20.10;51.40;;;;;;4153740;28;20570;-86
2022/07/17 11:15:22;;;;;;;;;;;20.10;51.50;;;;;;4155185;28;19909;-86
2022/07/17 11:17:55;;;;;;;;;;;20.00;51.80;;;;;;4163165;28;19925;-86
2022/07/17 11:20:24;;;;;;;;;;;20.00;52.10;;;;;;4158775;28;20020;-84
2022/07/17 11:22:45;;;;;;;;;;;20.00;52.30;;;;;;4157208;28;19909;-87
2022/07/17 11:25:06;;;;;;;;;;;20.00;52.40;;;;;;4148142;28;19935;-85
2022/07/17 11:27:32;;;;;;;;;;;20.00;52.60;;;;;;4148390;28;21363;-84
2022/07/17 11:29:54;;;;;;;;;;;20.00;52.60;;;;;;4147226;28;19913;-86
2022/07/17 11:32:15;;;;;;;;;;;20.10;52.60;;;;;;4155065;28;19924;-86
2022/07/17 11:34:38;;;;;;;;;;;20.10;52.50;;;;;;4163170;28;19932;-84
2022/07/17 11:37:04;;;;;;;;;;;20.10;52.10;;;;;;4154592;28;19908;-84
2022/07/17 11:39:25;;;;;;;;;;;20.10;52.10;;;;;;4150100;28;19909;-84
2022/07/17 11:41:49;;;;;;;;;;;20.10;51.70;;;;;;4154385;28;19917;-85
2022/07/17 11:44:14;;;;;;;;;;;20.10;51.40;;;;;;4162095;28;20019;-84
2022/07/17 11:46:35;;;;;;;;;;;20.10;51.20;;;;;;4150610;28;19909;-84
2022/07/17 11:48:56;;;;;;;;;;;20.10;51.40;;;;;;4149362;28;20325;-85
2022/07/17 11:51:18;;;;;;;;;;;20.10;51.50;;;;;;4155745;28;19915;-84
2022/07/17 11:53:39;;;;;;;;;;;20.10;50.90;;;;;;4151117;28;20375;-87
2022/07/17 11:56:00;;;;;;;;;;;20.10;50.50;;;;;;4151423;28;19913;-86
2022/07/17 11:58:21;;;;;;;;;;;20.10;50.70;;;;;;4156300;28;19963;-85
2022/07/17 12:00:42;;;;;;;;;;;20.10;50.30;;;;;;4155033;28;19905;-83
2022/07/17 12:03:06;;;;;;;;;;;20.00;50.00;;;;;;4156619;28;19936;-84
2022/07/17 12:05:28;;;;;;;;;;;20.00;50.30;;;;;;4152909;28;19999;-85
2022/07/17 12:07:49;;;;;;;;;;;20.00;49.90;;;;;;4153379;28;19996;-85
2022/07/17 12:10:18;;;;;;;;;;;20.00;50.20;;;;;;4150058;28;19909;-84
2022/07/17 12:12:39;;;;;;;;;;;20.00;50.20;;;;;;4154470;28;19909;-84
2022/07/17 12:15:00;;;;;;;;;;;20.00;49.80;;;;;;4153484;28;19952;-85
2022/07/17 12:17:21;;;;;;;;;;;20.00;50.20;;;;;;4150077;28;19913;-84
2022/07/17 12:19:42;;;;;;;;;;;20.00;50.60;;;;;;4147173;28;19909;-85
2022/07/17 12:22:04;;;;;;;;;;;20.00;51.10;;;;;;4149622;28;19910;-82
2022/07/17 12:24:26;;;;;;;;;;;20.00;50.80;;;;;;4157840;28;19913;-83
2022/07/17 12:26:47;;;;;;;;;;;20.00;50.60;;;;;;4151284;28;19912;-83
2022/07/17 12:29:08;;;;;;;;;;;20.00;50.60;;;;;;4151864;28;19932;-85
2022/07/17 12:31:30;;;;;;;;;;;20.00;50.50;;;;;;4153615;28;19912;-83
2022/07/17 12:33:52;;;;;;;;;;;20.10;50.60;;;;;;4145964;28;19916;-86
2022/07/17 12:36:13;;;;;;;;;;;20.00;50.50;;;;;;4148651;28;19959;-85
2022/07/17 12:38:35;;;;;;;;;;;20.00;50.50;;;;;;4157210;28;19960;-86
2022/07/17 12:40:55;;;;;;;;;;;20.00;50.70;;;;;;4149855;28;19913;-84
2022/07/17 12:43:16;;;;;;;;;;;20.10;50.60;;;;;;4154597;28;20418;-83
2022/07/17 12:45:37;;;;;;;;;;;20.10;50.10;;;;;;4152415;28;19999;-83
2022/07/17 12:47:58;;;;;;;;;;;20.10;50.80;;;;;;4149464;28;19909;-85
2022/07/17 12:50:19;;;;;;;;;;;20.10;51.20;;;;;;4147600;28;20367;-83
2022/07/17 12:52:40;;;;;;;;;;;20.10;51.20;;;;;;4147822;28;19905;-86
2022/07/17 12:55:04;;;;;;;;;;;20.20;51.30;;;;;;4153391;28;19916;-87
2022/07/17 12:57:25;;;;;;;;;;;20.20;51.40;;;;;;4154960;28;19913;-86
2022/07/17 12:59:49;;;;;;;;;;;20.20;51.50;;;;;;4153099;28;19910;-86
2022/07/17 13:02:09;;;;;;;;;;;20.20;51.30;;;;;;4148274;28;19915;-85
2022/07/17 13:04:30;;;;;;;;;;;20.20;50.80;;;;;;4147214;28;20445;-83
2022/07/17 13:06:52;;;;;;;;;;;20.20;50.70;;;;;;4149679;28;19920;-84
2022/07/17 13:09:12;;;;;;;;;;;20.20;50.80;;;;;;4151758;28;20386;-84
2022/07/17 13:11:33;;;;;;;;;;;20.30;50.80;;;;;;4157621;28;19956;-85
2022/07/17 13:13:54;;;;;;;;;;;20.20;50.70;;;;;;4148680;28;19914;-83
2022/07/17 13:16:15;;;;;;;;;;;20.20;51.10;;;;;;4155039;28;19913;-87
2022/07/17 13:18:36;;;;;;;;;;;20.30;51.40;;;;;;4152174;28;19988;-84
2022/07/17 13:20:57;;;;;;;;;;;20.40;51.50;;;;;;4160686;28;20362;-84
2022/07/17 13:23:18;;;;;;;;;;;20.40;50.60;;;;;;4153945;28;20399;-86
2022/07/17 13:25:39;;;;;;;;;;;20.40;51.20;;;;;;4151455;28;19916;-84
2022/07/17 13:28:00;;;;;;;;;;;20.50;51.00;;;;;;4155805;28;19909;-85
2022/07/17 13:30:21;;;;;;;;;;;20.50;50.70;;;;;;4151650;28;19917;-83
2022/07/17 13:32:42;;;;;;;;;;;20.60;50.60;;;;;;4159915;28;19909;-85
2022/07/17 13:35:03;;;;;;;;;;;20.60;50.00;;;;;;4164165;28;19909;-82
2022/07/17 13:37:24;;;;;;;;;;;20.60;50.10;;;;;;4155669;28;19975;-85
2022/07/17 13:39:45;;;;;;;;;;;20.70;50.40;;;;;;4160408;28;20423;-85
2022/07/17 13:42:06;;;;;;;;;;;20.70;50.80;;;;;;4158469;28;19979;-86
2022/07/17 13:44:33;;;;;;;;;;;20.80;50.80;;;;;;4153556;28;19936;-85
2022/07/17 13:46:56;;;;;;;;;;;20.90;51.10;;;;;;4149634;28;19910;-85